• Join FlightAware (Why Join?)
  • Login
  • US Flag 
02:39AM EST


 

Airport Tracker/Info


-or-


 

Live Flight TrackerFlight Track Log ✈ SKW5631 ✈ 24-Apr-2013 ✈ KSFO - KPSP

Flight Track Log - Related Links

Times and Time Zones

All times are in EDT time to prevent confusion due to time zone crossing. See the SKW5631 flight status page for this flight to view local times or setup timezone preferences in your user account.

Time Position Orientation Groundspeed Altitude Reporting Facility
EDT Latitude Longitude Course Direction KTS MPH feet Rate Location/Type
02:40PM 37.6667 -122.3667 133° Southeast 186 214 1,900  Level Northern Cal TRACON
02:41PM 37.7000 -122.4000 322° Northwest 254 292 3,600 2,400 Climbing Northern Cal TRACON
02:42PM 37.6833 -122.4833 256° West 286 329 6,500 2,820 Climbing Northern Cal TRACON
02:43PM 37.5939 -122.4831 180° South 290 334 9,700 2,220 Climbing Oakland Center
02:44PM 37.5225 -122.4322 151° Southeast 323 372 11,400 1,860 Climbing Oakland Center
02:45PM 37.2480 -122.0806 133° Southeast  Level FlightAware Approximate
02:45PM 37.4636 -122.3358 128° Southeast 344 396 13,600  Level Oakland Center
02:46PM 37.4017 -122.2372 128° Southeast 358 412 15,500 1,860 Climbing Oakland Center
02:47PM 37.3364 -122.1331 128° Southeast 377 434 17,500 2,100 Climbing Oakland Center
02:48PM 37.2547 -122.0036 128° Southeast 393 452 19,800 1,980 Climbing Oakland Center
02:49PM 37.1844 -121.8919 128° Southeast 406 467 21,600 1,740 Climbing Oakland Center
02:50PM 37.1103 -121.7725 128° Southeast 413 475 23,400 1,560 Climbing Oakland Center
02:51PM 37.0411 -121.6639 129° Southeast 422 486 24,800 1,080 Climbing Oakland Center
02:52PM 36.9664 -121.5456 128° Southeast 434 499 25,700 840 Climbing Oakland Center
02:53PM 36.8875 -121.4211 128° Southeast 453 521 26,600 960 Climbing Oakland Center
02:54PM 36.8000 -121.2847 129° Southeast 462 532 27,700 1,200 Climbing Oakland Center
02:55PM 36.7194 -121.1583 128° Southeast 466 536 29,100 1,380 Climbing Oakland Center
02:56PM 36.6400 -121.0328 128° Southeast 462 532 30,600 900 Climbing Oakland Center
02:57PM 36.5592 -120.9119 130° Southeast 463 533 31,000 180 Climbing Oakland Center
02:58PM 36.4775 -120.7853 129° Southeast 468 539 31,000  Level Oakland Center
02:59PM 36.3942 -120.6578 129° Southeast 474 545 31,000  Level Oakland Center
03:00PM 36.2939 -120.5050 129° Southeast 474 545 31,000  Level Oakland Center
03:01PM 36.2103 -120.3786 129° Southeast 474 545 31,000  Level Oakland Center
03:02PM 36.1292 -120.2558 129° Southeast 460 529 31,000  Level Oakland Center
03:03PM 36.0475 -120.1339 130° Southeast 459 528 31,000  Level Oakland Center
03:04PM 35.9667 -120.0139 130° Southeast 452 520 31,000  Level Oakland Center
03:05PM 35.8828 -119.8886 130° Southeast 466 536 31,000  Level Oakland Center
03:06PM 35.8006 -119.7653 129° Southeast 463 533 31,000  Level Oakland Center
03:07PM 35.7178 -119.6419 130° Southeast 463 533 31,000  Level Oakland Center
03:08PM 35.6325 -119.5181 130° Southeast 469 540 31,000  Level Oakland Center
03:09PM 35.5494 -119.3956 130° Southeast 467 537 31,000  Level Oakland Center
03:10PM 35.4686 -119.2739 129° Southeast 464 534 31,000  Level Los Angeles Center
03:11PM 35.3869 -119.1539 130° Southeast 459 528 31,000  Level Los Angeles Center
03:12PM 35.2903 -119.0100 129° Southeast 456 525 31,000  Level Los Angeles Center
03:13PM 35.2094 -118.8933 130° Southeast 450 518 31,000 -420 Level Los Angeles Center
03:14PM 35.1283 -118.7772 130° Southeast 448 516 30,200 -1,020 Descending Los Angeles Center
03:16PM 35.0461 -118.6594 130° Southeast 455 524 28,900 -1,380 Descending Los Angeles Center
03:17PM 34.9644 -118.5433 131° Southeast 452 520 27,400 -1,500 Descending Los Angeles Center
03:18PM 34.8769 -118.4161 130° Southeast 452 520 25,800 -1,500 Descending Los Angeles Center
03:19PM 34.7958 -118.2997 130° Southeast 454 522 24,300 -1,440 Descending Los Angeles Center
03:20PM 34.7158 -118.1869 131° Southeast 446 513 22,800 -1,500 Descending Los Angeles Center
03:21PM 34.6397 -118.0775 130° Southeast 429 494 21,300 -1,320 Descending Los Angeles Center
03:22PM 34.5717 -117.9350 120° Southeast 410 472 20,100 -660 Descending Los Angeles Center
03:23PM 34.5150 -117.8133 119° Southeast 415 478 20,000 -60 Descending Los Angeles Center
03:24PM 34.4572 -117.6881 119° Southeast 426 490 20,000 -480 Level Los Angeles Center
03:25PM 34.4017 -117.5667 119° Southeast 418 481 19,100 -1,140 Descending Los Angeles Center
03:26PM 34.3422 -117.4344 119° Southeast 392 451 17,700 -1,020 Descending Los Angeles Center
03:27PM 34.2894 -117.3189 119° Southeast 387 445 17,100 -360 Descending Los Angeles Center
03:28PM 34.2342 -117.2031 120° Southeast 395 455 17,000 -480 Descending Los Angeles Center
03:29PM 34.1778 -117.0858 120° Southeast 391 450 16,100 -780 Descending Los Angeles Center
03:30PM 34.1375 -116.9978 119° Southeast 379 436 15,400 -1,020 Descending Los Angeles Center
03:31PM 34.0678 -116.8492 119° Southeast 380 437 14,000 -720 Descending Los Angeles Center
03:32PM 34.0217 -116.7508 119° Southeast 333 383 14,000 -840 Level Los Angeles Center
03:33PM 34.0183 -116.6531 92° East 304 350 12,300 -1,680 Descending Los Angeles Center
03:34PM 34.0267 -116.5686 83° East 257 296 10,600 -2,040 Descending Los Angeles Center
03:35PM 33.9853 -116.5417 152° Southeast 204 235 8,200 -2,040 Descending Los Angeles Center
03:36PM 33.9292 -116.5483 186° South 192 221 6,500 -2,520 Descending Los Angeles Center
03:38PM 33.8500 -116.5333 171° South 141 162 1,100 -3,000 Descending Southern California TRACON
03:40PM 33.8297 -116.5067 239° Southwest  Level Estimated
03:47PM 33.8297 -116.5067 239° Southwest  Level Estimated